Share

Chiang Rai, Thailand

11:03 PM ICT on April 23, 2014 (GMT +0700)
Chiang Rai International (VTCT) Elev 1280 ft | 19.95 °N, 99.88 °E | Change Station

Current weather conditions updated 2 hours ago

Clear
Clear
88 °F
Feels Like 93 °F
N
6
Wind Variable Wind from South
Sunrise 5:56 AM
Sunset 6:41 PM
Moon Waning Crescent

Tomorrow is forecast to be nearly the same temperature as today.

Pressure 29.74 in
Visibility -9999.0 miles
Clouds
Heat Index 93 °F
Dew Point 70 °F
Humidity 55%
Rainfall 0.00 in
Snow Depth Not available.
UV Not available.
Pollen Not available.
Air Quality Not available.
Flu Activity Not available.
METAR VTCT 231400Z 17005KT CAVOK 31/21 Q1007 A2973 RMK/RWY03 INFO O

More Conditions Fewer Conditions

Pressure 29.74 in
Visibility -9999.0 miles
Clouds
Heat Index 93 °F
Dew Point 70 °F
Humidity 55%
Rainfall 0.00 in
Snow Depth Not available.
UV Not available.
Pollen Not available.
Air Quality Not available.
Flu Activity Not available.
METAR VTCT 231400Z 17005KT CAVOK 31/21 Q1007 A2973 RMK/RWY03 INFO O

More Conditions Fewer Conditions

10-Day Weather Forecast

Almanac

Astronomy

Apr. 23, 2014 Rise Set
Actual Time 5:56 AM ICT 6:41 PM ICT
Civil Twilight 5:34 AM ICT 7:03 PM ICT
Nautical Twilight 5:07 AM ICT 7:30 PM ICT
Astronomical Twilight 4:40 AM ICT 7:57 PM ICT
Moon 1:14 AM ICT 1:03 PM ICT
Length of Visible Light 13h 29m
Length of Day
12h 44m
Tomorrow will be 1m 2s longer.
Waning Crescent, 35% of the Moon is Illuminated
Today
Waning Crescent
Apr 29
New
May 6
First Quarter
May 14
Full
May 21
Last Quarter

Today's Extremes

Country Highs Country Lows

Community

  • spring flowers
    spring flowers
  • Earth Day Spectrum Ove' Blue
    Earth Day Spectrum Ove' Blue
  • BARN B&W
    BARN B&W
  • April Sunset
    April Sunset
  • Waiting..
    Waiting..

WunderPhotos

Upload Photos

1,704,319 photos uploaded!

Nearby

Snow Depth

Not available.

Coastal Water Temperatures

Place Temperature
No Stations Reporting

Earthquake Activity

City Distance Mag. Time & Date
No recent earthquake activity has been reported nearby.
Minimum magnitude displayed is 2.5.

Nearby Weather Stations

Station Location Temp. Heat Index Dew Point Humidity Wind Precip. Elev Updated Type
Chiang Rai ( West ), Chiang Rai 87.4 °F 99 °F 76 °F 70% West  at  1.0 mph 0.00 in / hr 1407 ft 7:24 PM ICT Normal

Show More Stations Show Fewer Stations

What do you think?

We're not finished. Please let us know what you like, what you don't like, and what you are still missing.